Kaami — C6VO9 — position and weather

sailwx.info

Track history (hours):
 
Tides and Currents Weather Stations Pressure Air Temp Water Temp Dewpoint Dewpoint Depression Visibility Wind Speed Wind Dir Waves Ship Positions

Kaami

Last reported at 2014-Sep-22 13:33 UTC. Time now 2014-Sep-22 14:19 UTC.
Position N 56°25' E 012°21'.

Length 90 m; draft 5.9 m.

Type: Cargo ship. MMSI: 308542000.

Date/timePositionNaut miles runAvg speedWind from/ knotsBaromVisibWave heightAir tempDewpointWater temp
2014-Sep-22 13:33N 56°25' E 012°21'6 6.1
2014-Sep-22 12:33N 56°19' E 012°24'7 6.5
2014-Sep-22 11:33N 56°13' E 012°28'6 6.3
2014-Sep-22 10:33N 56°07' E 012°33'6 6.0
2014-Sep-22 09:33N 56°03' E 012°40'5 4.7
2014-Sep-22 08:33N 55°58' E 012°42'7 7.5
2014-Sep-22 07:33N 55°51' E 012°44'8 7.7
2014-Sep-22 06:33N 55°43' E 012°41'7 6.6
2014-Sep-22 05:33N 55°37' E 012°42'7 7.1
2014-Sep-22 04:33N 55°30' E 012°43'9 8.6
2014-Sep-22 03:33N 55°21' E 012°41'8 7.6
2014-Sep-22 02:33N 55°16' E 012°52'52 8.4
2014-Sep-21 20:21N 55°18' E 014°23'9 9.3
2014-Sep-21 19:26N 55°25' E 014°34'8 8.7
2014-Sep-21 18:31N 55°26' E 014°47'9 8.8
2014-Sep-21 17:33N 55°27' E 015°02'10 9.0
2014-Sep-21 16:27N 55°28' E 015°20'105 9.4
2014-Sep-21 05:21N 55°37' E 018°24'18 9.9
2014-Sep-21 03:32N 55°39' E 018°56'10 9.9
2014-Sep-21 02:33N 55°39' E 019°13'10 9.7
2014-Sep-21 01:33N 55°40' E 019°30'10 9.7
2014-Sep-21 00:33N 55°41' E 019°47'10 9.6
2014-Sep-20 23:33N 55°42' E 020°04'10 9.8
2014-Sep-20 22:33N 55°43' E 020°22'51 1.7
2014-Sep-19 17:27N 54°60' E 019°34'1010.8
2014-Sep-19 16:33N 54°53' E 019°22'6 6.3
2014-Sep-19 15:33N 54°49' E 019°14'9 9.3
2014-Sep-19 14:33N 54°42' E 019°02'1110.8
2014-Sep-19 13:33N 54°34' E 018°51'1010.4
2014-Sep-19 12:33N 54°26' E 018°39'3 2.9
2014-Sep-19 11:31N 54°23' E 018°40'0 0.0
2014-Sep-19 10:31N 54°23' E 018°40'0 0.0
2014-Sep-19 09:31N 54°23' E 018°40'0 0.0
2014-Sep-19 08:31N 54°23' E 018°40'0 0.0
2014-Sep-19 07:31N 54°23' E 018°40'0 0.0
2014-Sep-19 06:31N 54°23' E 018°40'0 0.0
2014-Sep-19 05:31N 54°23' E 018°40'0 0.0
2014-Sep-19 04:31N 54°23' E 018°40'0 0.0
2014-Sep-19 03:31N 54°23' E 018°40'0 0.0
2014-Sep-19 02:31N 54°23' E 018°40'0 0.0
2014-Sep-19 01:31N 54°23' E 018°40'0 0.0
2014-Sep-19 00:31N 54°23' E 018°40'0 0.0
2014-Sep-18 23:31N 54°23' E 018°40'0 0.0
2014-Sep-18 22:31N 54°23' E 018°40'0 0.0
2014-Sep-18 21:31N 54°23' E 018°40'0 0.0
2014-Sep-18 20:31N 54°23' E 018°40'0 0.0
2014-Sep-18 19:31N 54°23' E 018°40'0 0.0
2014-Sep-18 18:31N 54°23' E 018°40'0 0.0
2014-Sep-18 17:31N 54°23' E 018°40'0 0.0
2014-Sep-18 16:31N 54°23' E 018°40'0 0.0
2014-Sep-18 15:31N 54°23' E 018°40'0 0.0
2014-Sep-18 14:31N 54°23' E 018°40'0 0.0
2014-Sep-18 13:34N 54°23' E 018°40'0 0.0
2014-Sep-18 12:33N 54°23' E 018°40'0 0.0
2014-Sep-18 11:33N 54°23' E 018°40'0 0.0
2014-Sep-18 10:33N 54°23' E 018°40'0 0.0
2014-Sep-18 09:33N 54°23' E 018°40'0 0.0
2014-Sep-18 08:33N 54°23' E 018°40'1 1.1
2014-Sep-18 07:33N 54°24' E 018°41'7 6.8
2014-Sep-18 06:33N 54°30' E 018°45'8 7.7
2014-Sep-18 05:33N 54°36' E 018°53'8 7.8
2014-Sep-18 04:33N 54°44' E 018°57'7 7.4
2014-Sep-18 03:33N 54°50' E 018°49'8 7.7
2014-Sep-18 02:33N 54°55' E 018°38'6 6.4
2014-Sep-18 01:33N 54°55' E 018°27'7 7.0
2014-Sep-18 00:33N 54°55' E 018°15'7 6.9
2014-Sep-17 23:33N 54°55' E 018°03'7 6.9
2014-Sep-17 22:33N 54°55' E 017°51'8 7.0
2014-Sep-17 21:27N 54°55' E 017°38'6 6.9
2014-Sep-17 20:32N 54°56' E 017°27'7 7.0
2014-Sep-17 19:33N 54°56' E 017°15'7 6.9
2014-Sep-17 18:33N 54°57' E 017°03'16 6.9
2014-Sep-17 16:11N 54°55' E 016°34'11 6.7
2014-Sep-17 14:30N 54°55' E 016°15'23 7.6
2014-Sep-17 11:28N 54°55' E 015°35'9 9.3
2014-Sep-17 10:33N 54°56' E 015°20'10 9.4
2014-Sep-17 09:31N 54°56' E 015°03'9 9.5
2014-Sep-17 08:33N 54°57' E 014°47'9 9.4
2014-Sep-17 07:33N 54°57' E 014°31'9 9.4
2014-Sep-17 06:33N 54°58' E 014°15'10 9.5
2014-Sep-17 05:33N 54°58' E 013°58'8 8.2
2014-Sep-17 04:33N 55°03' E 013°46'10 9.6
2014-Sep-17 03:33N 55°06' E 013°31'10 9.3
2014-Sep-17 02:29N 55°10' E 013°15'8 9.0
2014-Sep-17 01:33N 55°13' E 013°01'9 8.8
2014-Sep-17 00:33N 55°16' E 012°47'7 7.5
2014-Sep-16 23:33N 55°22' E 012°39'9 9.4
2014-Sep-16 22:33N 55°32' E 012°42'8 8.3
2014-Sep-16 21:33N 55°40' E 012°41'9 8.8
2014-Sep-16 20:33N 55°49' E 012°41'9 8.8
2014-Sep-16 19:33N 55°57' E 012°38'7 7.3
2014-Sep-16 18:33N 56°05' E 012°36'7 7.5
2014-Sep-16 17:33N 56°09' E 012°25'9 9.5
2014-Sep-16 16:33N 56°15' E 012°11'10 9.5
2014-Sep-16 15:33N 56°22' E 012°02'1010.0
2014-Sep-16 14:30N 56°33' E 011°57'9 9.5
2014-Sep-16 13:33N 56°41' E 011°53'10 9.6
2014-Sep-16 12:32N 56°51' E 011°48'1010.1
2014-Sep-16 11:33N 57°00' E 011°42'10 9.6
2014-Sep-16 10:33N 57°09' E 011°34'9 8.9
2014-Sep-16 09:31N 57°17' E 011°27'8 8.6
2014-Sep-16 08:33N 57°24' E 011°20'9 8.7
2014-Sep-16 07:33N 57°31' E 011°09'9 8.5
2014-Sep-16 06:33N 57°36' E 010°57'9 9.1
2014-Sep-16 05:33N 57°42' E 010°43'4 3.5
2014-Sep-16 04:33N 57°42' E 010°37'5 4.2
2014-Sep-16 03:25N 57°45' E 010°44'6 6.9
2014-Sep-16 02:31N 57°47' E 010°33'9 7.8
2014-Sep-16 01:26N 57°48' E 010°17'10 7.5
2014-Sep-16 00:08N 57°49' E 009°59'116 7.4
2014-Sep-15 08:23N 58°04' E 006°22'7 8.0
2014-Sep-15 07:33N 58°08' E 006°12'8 7.8
2014-Sep-15 06:32N 58°13' E 006°01'8 7.6
2014-Sep-15 05:33N 58°19' E 005°51'8 8.4
2014-Sep-15 04:33N 58°25' E 005°40'8 8.6
2014-Sep-15 03:33N 58°31' E 005°29'12 8.9
2014-Sep-15 02:10N 58°41' E 005°16'6 9.3
2014-Sep-15 01:34N 58°46' E 005°11'9 9.2
2014-Sep-15 00:33N 58°55' E 005°03'9 8.6
2014-Sep-14 23:33N 59°02' E 004°55'10 9.0
2014-Sep-14 22:26N 59°11' E 004°45'  
Track history (hours):
 
Tides and Currents Weather Stations Pressure Air Temp Water Temp Dewpoint Dewpoint Depression Visibility Wind Speed Wind Dir Waves Ship Positions

Kaami

Last reported at 2014-Sep-22 13:33 UTC. Time now 2014-Sep-22 14:19 UTC.
Position N 56°25' E 012°21'.

Length 90 m; draft 5.9 m.

Type: Cargo ship. MMSI: 308542000.

Date/timePositionNaut miles runAvg speedWind from/ knotsBaromVisibWave heightAir tempDewpointWater temp
2014-Sep-22 13:33N 56°25' E 012°21'6 6.1
2014-Sep-22 12:33N 56°19' E 012°24'7 6.5
2014-Sep-22 11:33N 56°13' E 012°28'6 6.3
2014-Sep-22 10:33N 56°07' E 012°33'6 6.0
2014-Sep-22 09:33N 56°03' E 012°40'5 4.7
2014-Sep-22 08:33N 55°58' E 012°42'7 7.5
2014-Sep-22 07:33N 55°51' E 012°44'8 7.7
2014-Sep-22 06:33N 55°43' E 012°41'7 6.6
2014-Sep-22 05:33N 55°37' E 012°42'7 7.1
2014-Sep-22 04:33N 55°30' E 012°43'9 8.6
2014-Sep-22 03:33N 55°21' E 012°41'8 7.6
2014-Sep-22 02:33N 55°16' E 012°52'52 8.4
2014-Sep-21 20:21N 55°18' E 014°23'9 9.3
2014-Sep-21 19:26N 55°25' E 014°34'8 8.7
2014-Sep-21 18:31N 55°26' E 014°47'9 8.8
2014-Sep-21 17:33N 55°27' E 015°02'10 9.0
2014-Sep-21 16:27N 55°28' E 015°20'105 9.4
2014-Sep-21 05:21N 55°37' E 018°24'18 9.9
2014-Sep-21 03:32N 55°39' E 018°56'10 9.9
2014-Sep-21 02:33N 55°39' E 019°13'10 9.7
2014-Sep-21 01:33N 55°40' E 019°30'10 9.7
2014-Sep-21 00:33N 55°41' E 019°47'10 9.6
2014-Sep-20 23:33N 55°42' E 020°04'10 9.8
2014-Sep-20 22:33N 55°43' E 020°22'51 1.7
2014-Sep-19 17:27N 54°60' E 019°34'1010.8
2014-Sep-19 16:33N 54°53' E 019°22'6 6.3
2014-Sep-19 15:33N 54°49' E 019°14'9 9.3
2014-Sep-19 14:33N 54°42' E 019°02'1110.8
2014-Sep-19 13:33N 54°34' E 018°51'1010.4
2014-Sep-19 12:33N 54°26' E 018°39'3 2.9
2014-Sep-19 11:31N 54°23' E 018°40'0 0.0
2014-Sep-19 10:31N 54°23' E 018°40'0 0.0
2014-Sep-19 09:31N 54°23' E 018°40'0 0.0
2014-Sep-19 08:31N 54°23' E 018°40'0 0.0
2014-Sep-19 07:31N 54°23' E 018°40'0 0.0
2014-Sep-19 06:31N 54°23' E 018°40'0 0.0
2014-Sep-19 05:31N 54°23' E 018°40'0 0.0
2014-Sep-19 04:31N 54°23' E 018°40'0 0.0
2014-Sep-19 03:31N 54°23' E 018°40'0 0.0
2014-Sep-19 02:31N 54°23' E 018°40'0 0.0
2014-Sep-19 01:31N 54°23' E 018°40'0 0.0
2014-Sep-19 00:31N 54°23' E 018°40'0 0.0
2014-Sep-18 23:31N 54°23' E 018°40'0 0.0
2014-Sep-18 22:31N 54°23' E 018°40'0 0.0
2014-Sep-18 21:31N 54°23' E 018°40'0 0.0
2014-Sep-18 20:31N 54°23' E 018°40'0 0.0
2014-Sep-18 19:31N 54°23' E 018°40'0 0.0
2014-Sep-18 18:31N 54°23' E 018°40'0 0.0
2014-Sep-18 17:31N 54°23' E 018°40'0 0.0
2014-Sep-18 16:31N 54°23' E 018°40'0 0.0
2014-Sep-18 15:31N 54°23' E 018°40'0 0.0
2014-Sep-18 14:31N 54°23' E 018°40'0 0.0
2014-Sep-18 13:34N 54°23' E 018°40'0 0.0
2014-Sep-18 12:33N 54°23' E 018°40'0 0.0
2014-Sep-18 11:33N 54°23' E 018°40'0 0.0
2014-Sep-18 10:33N 54°23' E 018°40'0 0.0
2014-Sep-18 09:33N 54°23' E 018°40'0 0.0
2014-Sep-18 08:33N 54°23' E 018°40'1 1.1
2014-Sep-18 07:33N 54°24' E 018°41'7 6.8
2014-Sep-18 06:33N 54°30' E 018°45'8 7.7
2014-Sep-18 05:33N 54°36' E 018°53'8 7.8
2014-Sep-18 04:33N 54°44' E 018°57'7 7.4
2014-Sep-18 03:33N 54°50' E 018°49'8 7.7
2014-Sep-18 02:33N 54°55' E 018°38'6 6.4
2014-Sep-18 01:33N 54°55' E 018°27'7 7.0
2014-Sep-18 00:33N 54°55' E 018°15'7 6.9
2014-Sep-17 23:33N 54°55' E 018°03'7 6.9
2014-Sep-17 22:33N 54°55' E 017°51'8 7.0
2014-Sep-17 21:27N 54°55' E 017°38'6 6.9
2014-Sep-17 20:32N 54°56' E 017°27'7 7.0
2014-Sep-17 19:33N 54°56' E 017°15'7 6.9
2014-Sep-17 18:33N 54°57' E 017°03'16 6.9
2014-Sep-17 16:11N 54°55' E 016°34'11 6.7
2014-Sep-17 14:30N 54°55' E 016°15'23 7.6
2014-Sep-17 11:28N 54°55' E 015°35'9 9.3
2014-Sep-17 10:33N 54°56' E 015°20'10 9.4
2014-Sep-17 09:31N 54°56' E 015°03'9 9.5
2014-Sep-17 08:33N 54°57' E 014°47'9 9.4
2014-Sep-17 07:33N 54°57' E 014°31'9 9.4
2014-Sep-17 06:33N 54°58' E 014°15'10 9.5
2014-Sep-17 05:33N 54°58' E 013°58'8 8.2
2014-Sep-17 04:33N 55°03' E 013°46'10 9.6
2014-Sep-17 03:33N 55°06' E 013°31'10 9.3
2014-Sep-17 02:29N 55°10' E 013°15'8 9.0
2014-Sep-17 01:33N 55°13' E 013°01'9 8.8
2014-Sep-17 00:33N 55°16' E 012°47'7 7.5
2014-Sep-16 23:33N 55°22' E 012°39'9 9.4
2014-Sep-16 22:33N 55°32' E 012°42'8 8.3
2014-Sep-16 21:33N 55°40' E 012°41'9 8.8
2014-Sep-16 20:33N 55°49' E 012°41'9 8.8
2014-Sep-16 19:33N 55°57' E 012°38'7 7.3
2014-Sep-16 18:33N 56°05' E 012°36'7 7.5
2014-Sep-16 17:33N 56°09' E 012°25'9 9.5
2014-Sep-16 16:33N 56°15' E 012°11'10 9.5
2014-Sep-16 15:33N 56°22' E 012°02'1010.0
2014-Sep-16 14:30N 56°33' E 011°57'9 9.5
2014-Sep-16 13:33N 56°41' E 011°53'10 9.6
2014-Sep-16 12:32N 56°51' E 011°48'1010.1
2014-Sep-16 11:33N 57°00' E 011°42'10 9.6
2014-Sep-16 10:33N 57°09' E 011°34'9 8.9
2014-Sep-16 09:31N 57°17' E 011°27'8 8.6
2014-Sep-16 08:33N 57°24' E 011°20'9 8.7
2014-Sep-16 07:33N 57°31' E 011°09'9 8.5
2014-Sep-16 06:33N 57°36' E 010°57'9 9.1
2014-Sep-16 05:33N 57°42' E 010°43'4 3.5
2014-Sep-16 04:33N 57°42' E 010°37'5 4.2
2014-Sep-16 03:25N 57°45' E 010°44'6 6.9
2014-Sep-16 02:31N 57°47' E 010°33'9 7.8
2014-Sep-16 01:26N 57°48' E 010°17'10 7.5
2014-Sep-16 00:08N 57°49' E 009°59'116 7.4
2014-Sep-15 08:23N 58°04' E 006°22'7 8.0
2014-Sep-15 07:33N 58°08' E 006°12'8 7.8
2014-Sep-15 06:32N 58°13' E 006°01'8 7.6
2014-Sep-15 05:33N 58°19' E 005°51'8 8.4
2014-Sep-15 04:33N 58°25' E 005°40'8 8.6
2014-Sep-15 03:33N 58°31' E 005°29'12 8.9
2014-Sep-15 02:10N 58°41' E 005°16'6 9.3
2014-Sep-15 01:34N 58°46' E 005°11'9 9.2
2014-Sep-15 00:33N 58°55' E 005°03'9 8.6
2014-Sep-14 23:33N 59°02' E 004°55'10 9.0
2014-Sep-14 22:26N 59°11' E 004°45'  

Dump ship's entire track history